Flight Sim Network - SLLP Airport Info

    SLLP (El Alto International Airport)  Login to use Map Selector
   

  RUNWAY INFORMATION    |    Airport Elevation : 13355ft    |    LAT : -16.5132999420166  /  LON : -68.1922988891602
Runway Number 10 / 28 Runway Width 151' Runway Length 13123'
Lighted Runway Yes Runway StatusOpen Runway Surface Concrete
Runway Number 10L / 28R Runway Width 300' Runway Length 6725'
Lighted Runway No Runway StatusOpen Runway Surface Grass
  CLOSE ALTERNATE AIRPORTS
ICAODistanceAirport NameLongest RWRW SurfaceMAP
SLLJ6NMLaja4921FTGrass
SLCC55NMCopacabana Airport5249FTGrass
SLCN96NMCharana6562FTGrass
SLAP107NMApolo Airport4265FTGrass
SLOR108NMJuan Mendoza Airport8075FTGrass
  AIRPORT WEATHER
57°F | 14°C
Temperature
24%
Humidity
30" | 0mb
Pressure
6sm
Visibility
VFR
Flight Rules
FEW @ 1700ft
Initial Clouds
FAIR
Conditions
Wind Info
7/23/24 17:00Z
Updated

SLLP 231700Z 29009G19KT 9999 FEW017 14/M06 Q1040
  AIRPORT FREQUENCIES
NameFrequency
CLEARANCE127.100
GROUND121.900
TOWER118.300
APPROACH119.500
DEPARTURE119.500
ILPA (RWY 10)110.300

Powered by Virtual Airlines Manager